Delta Poseidon — SVBF6 — position and weather

sailwx.info

Track history (hours):
 
Tides and Currents Weather Stations Pressure Air Temp Water Temp Dewpoint Dewpoint Depression Visibility Wind Speed Wind Dir Waves Ship Positions

Delta Poseidon

Last reported at 2017-Jun-28 07:49 UTC. Time now 2017-Jul-27 18:26 UTC.
Position S 23°53' W 041°40'.
Warning: this ship's position is 29 days out of date.

Length 274 m; draft 9.4 m.

Type: Tanker. MMSI: 241086000.

Date/timePositionNaut miles runAvg speedWind from/ knotsBaromVisibWave heightAir tempDewpointWater temp
2017-Jun-28 07:49S 23°53' W 041°40'  
2017-Jun-19 21:46S 24°03' W 042°40'2 8.6
2017-Jun-19 21:30S 24°03' W 042°38'5 9.4
2017-Jun-19 21:00S 24°03' W 042°32'8 9.8
2017-Jun-19 20:14S 24°02' W 042°24'2 9.7
2017-Jun-19 20:00S 24°01' W 042°22'5 9.6
2017-Jun-19 19:30S 24°00' W 042°17'5 9.6
2017-Jun-19 19:00S 23°59' W 042°12'5 9.4
2017-Jun-19 18:30S 23°58' W 042°07'5 9.2
2017-Jun-19 18:00S 23°57' W 042°02'4 8.7
2017-Jun-19 17:30S 23°56' W 041°57'4 8.3
2017-Jun-19 17:00S 23°55' W 041°53'4 8.5
2017-Jun-19 16:30S 23°55' W 041°48'4 8.9
2017-Jun-19 16:00S 23°54' W 041°43'5 9.1
2017-Jun-19 15:30S 23°53' W 041°38'5 9.2
2017-Jun-19 15:00S 23°52' W 041°33'9 8.9
2017-Jun-19 14:00S 23°50' W 041°24'5 9.3
2017-Jun-19 13:30S 23°49' W 041°19'5 9.9
2017-Jun-19 13:00S 23°48' W 041°14'5 9.8
2017-Jun-19 12:30S 23°47' W 041°08'5 9.7
2017-Jun-19 12:00S 23°46' W 041°03'5 9.6
2017-Jun-19 11:30S 23°45' W 040°58'5 9.4
2017-Jun-19 11:00S 23°44' W 040°53'5 9.3
2017-Jun-19 10:30S 23°43' W 040°48'5 9.4
2017-Jun-19 10:00S 23°42' W 040°43'5 9.4
2017-Jun-19 09:30S 23°41' W 040°38'5 9.5
2017-Jun-19 09:00S 23°40' W 040°33'5 9.4
2017-Jun-19 08:30S 23°39' W 040°28'5 9.1
2017-Jun-19 08:00S 23°37' W 040°23'5 9.8
2017-Jun-19 07:30S 23°33' W 040°20'  
Track history (hours):
 
Tides and Currents Weather Stations Pressure Air Temp Water Temp Dewpoint Dewpoint Depression Visibility Wind Speed Wind Dir Waves Ship Positions

Delta Poseidon

Last reported at 2017-Jun-28 07:49 UTC. Time now 2017-Jul-27 18:26 UTC.
Position S 23°53' W 041°40'.
Warning: this ship's position is 29 days out of date.

Length 274 m; draft 9.4 m.

Type: Tanker. MMSI: 241086000.

Date/timePositionNaut miles runAvg speedWind from/ knotsBaromVisibWave heightAir tempDewpointWater temp
2017-Jun-28 07:49S 23°53' W 041°40'  
2017-Jun-19 21:46S 24°03' W 042°40'2 8.6
2017-Jun-19 21:30S 24°03' W 042°38'5 9.4
2017-Jun-19 21:00S 24°03' W 042°32'8 9.8
2017-Jun-19 20:14S 24°02' W 042°24'2 9.7
2017-Jun-19 20:00S 24°01' W 042°22'5 9.6
2017-Jun-19 19:30S 24°00' W 042°17'5 9.6
2017-Jun-19 19:00S 23°59' W 042°12'5 9.4
2017-Jun-19 18:30S 23°58' W 042°07'5 9.2
2017-Jun-19 18:00S 23°57' W 042°02'4 8.7
2017-Jun-19 17:30S 23°56' W 041°57'4 8.3
2017-Jun-19 17:00S 23°55' W 041°53'4 8.5
2017-Jun-19 16:30S 23°55' W 041°48'4 8.9
2017-Jun-19 16:00S 23°54' W 041°43'5 9.1
2017-Jun-19 15:30S 23°53' W 041°38'5 9.2
2017-Jun-19 15:00S 23°52' W 041°33'9 8.9
2017-Jun-19 14:00S 23°50' W 041°24'5 9.3
2017-Jun-19 13:30S 23°49' W 041°19'5 9.9
2017-Jun-19 13:00S 23°48' W 041°14'5 9.8
2017-Jun-19 12:30S 23°47' W 041°08'5 9.7
2017-Jun-19 12:00S 23°46' W 041°03'5 9.6
2017-Jun-19 11:30S 23°45' W 040°58'5 9.4
2017-Jun-19 11:00S 23°44' W 040°53'5 9.3
2017-Jun-19 10:30S 23°43' W 040°48'5 9.4
2017-Jun-19 10:00S 23°42' W 040°43'5 9.4
2017-Jun-19 09:30S 23°41' W 040°38'5 9.5
2017-Jun-19 09:00S 23°40' W 040°33'5 9.4
2017-Jun-19 08:30S 23°39' W 040°28'5 9.1
2017-Jun-19 08:00S 23°37' W 040°23'5 9.8
2017-Jun-19 07:30S 23°33' W 040°20'  

Dump ship's entire track history